Eprise, Alabama
Current Conditions -  °F | °C
As of 9:55 PM on Sunday 23 Nov 2014 (Local Time) from KEDN Reporting Station
Overcast Overcast  
Wind Chill: 64°   Ceiling: 500
Heat Index: 64°   Visibility: 10mi
Dew Point: 63°   Wind: 9mph
Humidity: 94%   Direction: 200°SSW
Pressure: 29.79"   Gusts: NA
Location:  31.3153°N, 85.8554°W
Report Text: KEDN 240355Z AUTO 20008KT 10SM OVC005 18/17 A2979 RMK AO2
Loading
Personal Weather Stations






























Interactive Weather Map New forecast layout! Learn more

10-Day Weather Forecast

Advertisements
Track Severe Weather on mobile